Time;durP1;ratioP1;P1;durP2;ratioP2;P2;SDS_P1;SDS_P2;PMS_P1;PMS_P2;Temp;Humidity;BMP_temperature;BMP_pressure;BME280_temperature;BME280_humidity;BME280_pressure;Samples;Min_cycle;Max_cycle;Signal;HPM_P1;HPM_P2
2021/12/31 00:02:21;;;;;;;20.05;12.23;;;;;;;13.32;89.66;100412.94;5049850;28;20091;-78
2021/12/31 00:04:50;;;;;;;12.77;4.90;;;;;;;13.24;89.61;100412.03;5048391;28;20041;-76
2021/12/31 00:07:18;;;;;;;11.77;4.03;;;;;;;13.22;89.62;100411.16;5032335;28;20128;-76
2021/12/31 00:09:46;;;;;;;8.65;3.92;;;;;;;13.19;89.48;100400.56;5048707;28;20148;-76
2021/12/31 00:12:15;;;;;;;7.65;3.22;;;;;;;13.16;89.66;100393.50;5047480;28;20053;-76
2021/12/31 00:14:43;;;;;;;12.48;6.07;;;;;;;13.18;89.85;100404.97;5031786;28;20465;-77
2021/12/31 00:17:10;;;;;;;8.15;2.97;;;;;;;13.26;90.09;100412.94;5048674;28;20468;-78
2021/12/31 00:19:43;;;;;;;7.75;3.60;;;;;;;13.29;90.19;100420.88;5049707;28;20464;-77
2021/12/31 00:22:35;;;;;;;17.08;9.07;;;;;;;13.32;90.14;100420.88;5049476;28;20041;-77
2021/12/31 00:25:03;;;;;;;12.68;6.22;;;;;;;13.34;90.18;100417.31;5049448;28;20103;-77
2021/12/31 00:27:32;;;;;;;11.38;5.15;;;;;;;13.35;90.20;100415.56;5029587;28;20041;-77
2021/12/31 00:30:00;;;;;;;12.00;5.78;;;;;;;13.31;90.33;100416.47;5014544;28;20049;-77
2021/12/31 00:32:28;;;;;;;10.20;3.83;;;;;;;13.34;90.35;100413.78;5048234;28;20044;-77
2021/12/31 00:34:55;;;;;;;4.80;2.35;;;;;;;13.31;90.16;100405.84;5047785;28;20045;-76
2021/12/31 00:37:27;;;;;;;6.63;3.28;;;;;;;13.27;90.20;100406.72;5045147;28;20134;-76
2021/12/31 00:39:55;;;;;;;10.93;7.60;;;;;;;13.19;90.16;100408.53;5064302;28;20480;-75
2021/12/31 00:42:22;;;;;;;9.77;8.00;;;;;;;13.09;90.19;100407.59;5047750;28;20079;-75
2021/12/31 00:44:52;;;;;;;8.48;4.25;;;;;;;13.09;90.28;100408.47;5046771;28;20094;-75
2021/12/31 00:47:20;;;;;;;4.20;2.67;;;;;;;13.09;90.41;100410.25;5047525;28;20069;-74
2021/12/31 00:49:47;;;;;;;1.55;0.80;;;;;;;13.11;90.49;100408.50;5064538;28;20059;-74
2021/12/31 00:52:15;;;;;;;2.40;0.93;;;;;;;13.16;90.30;100409.41;5049351;28;20408;-74
2021/12/31 00:54:43;;;;;;;5.63;2.53;;;;;;;13.20;90.11;100413.78;5048682;28;20037;-74
2021/12/31 00:57:11;;;;;;;7.28;4.10;;;;;;;13.27;90.11;100412.03;5047126;28;20047;-74
2021/12/31 00:59:40;;;;;;;6.75;3.53;;;;;;;13.32;90.08;100408.50;5046961;28;20111;-74
2021/12/31 01:02:12;;;;;;;5.03;2.50;;;;;;;13.41;90.09;100410.25;5047802;28;20048;-75
2021/12/31 01:04:39;;;;;;;5.38;2.10;;;;;;;13.42;89.94;100406.72;5047283;28;20052;-75
2021/12/31 01:07:07;;;;;;;2.47;1.40;;;;;;;13.39;89.88;100417.34;5041810;28;20052;-76
2021/12/31 01:09:35;;;;;;;7.40;3.17;;;;;;;13.30;89.41;100415.56;5047672;28;20120;-74
2021/12/31 01:12:07;;;;;;;4.55;2.22;;;;;;;13.22;89.36;100412.03;5047659;28;20048;-76
2021/12/31 01:14:38;;;;;;;4.25;2.30;;;;;;;13.25;89.81;100409.41;5048532;28;20064;-76
2021/12/31 01:17:09;;;;;;;4.38;1.85;;;;;;;13.30;89.86;100417.34;5047307;28;20048;-75
2021/12/31 01:19:46;;;;;;;6.25;2.45;;;;;;;13.15;89.59;100403.22;5046805;28;20094;-75
2021/12/31 01:22:15;;;;;;;11.45;7.95;;;;;;;12.98;89.62;100398.78;5047307;28;20065;-75
2021/12/31 01:24:44;;;;;;;3.65;1.75;;;;;;;12.92;89.81;100389.06;5048536;28;20119;-76
2021/12/31 01:27:11;;;;;;;9.18;7.68;;;;;;;12.86;89.84;100382.88;5049276;28;20049;-75
2021/12/31 01:29:39;;;;;;;11.32;8.18;;;;;;;12.76;89.91;100377.56;5048665;28;20041;-75
2021/12/31 01:32:07;;;;;;;15.38;11.93;;;;;;;12.82;90.10;100386.41;5047653;28;20537;-75
2021/12/31 01:34:37;;;;;;;8.18;4.07;;;;;;;12.87;90.19;100396.09;5048058;28;20116;-74
2021/12/31 01:37:05;;;;;;;3.40;2.08;;;;;;;12.95;90.12;100410.25;5031093;28;20055;-74
2021/12/31 01:39:33;;;;;;;3.95;2.05;;;;;;;13.02;89.67;100408.47;5047896;28;20040;-75
2021/12/31 01:42:02;;;;;;;3.35;1.63;;;;;;;13.11;89.85;100404.06;5048090;28;20656;-75
2021/12/31 01:44:37;;;;;;;4.65;1.80;;;;;;;13.21;89.70;100407.63;5050308;28;20033;-74
2021/12/31 01:47:09;;;;;;;19.52;5.47;;;;;;;13.13;89.39;100401.44;5052819;28;20120;-79
2021/12/31 01:49:41;;;;;;;3.75;1.10;;;;;;;12.83;89.63;100412.00;5051172;28;20037;-74
2021/12/31 01:52:11;;;;;;;2.35;1.17;;;;;;;12.74;89.99;100411.09;5051416;28;20041;-75
2021/12/31 01:54:39;;;;;;;4.22;1.27;;;;;;;12.74;90.16;100411.09;5033868;28;20041;-78
2021/12/31 01:57:10;;;;;;;14.48;6.22;;;;;;;12.77;90.17;100399.66;5051518;28;20132;-79
2021/12/31 01:59:40;;;;;;;12.20;6.32;;;;;;;12.72;90.15;100404.94;5054321;28;20045;-78
2021/12/31 02:02:09;;;;;;;39.80;33.25;;;;;;;12.76;90.34;100408.47;5068395;28;20055;-79
2021/12/31 02:04:40;;;;;;;54.25;38.45;;;;;;;12.75;90.30;100409.34;5051841;28;20140;-76
2021/12/31 02:07:09;;;;;;;3.60;2.20;;;;;;;12.83;90.60;100404.94;5067791;28;20036;-77
2021/12/31 02:09:41;;;;;;;3.83;1.63;;;;;;;12.82;90.67;100413.78;5050867;28;20563;-76
2021/12/31 02:12:11;;;;;;;9.57;5.63;;;;;;;12.86;90.62;100414.66;5052656;28;20053;-77
2021/12/31 02:14:39;;;;;;;17.00;14.32;;;;;;;12.81;90.55;100416.41;5051363;28;20120;-76
2021/12/31 02:17:09;;;;;;;27.42;21.70;;;;;;;12.85;90.55;100412.91;5051895;28;20041;-76
2021/12/31 02:19:38;;;;;;;22.83;16.40;;;;;;;12.88;90.62;100418.19;5051889;28;20436;-75
2021/12/31 02:22:08;;;;;;;12.95;9.80;;;;;;;12.92;90.68;100406.72;5051647;28;20128;-74
2021/12/31 02:24:37;;;;;;;14.48;10.82;;;;;;;12.93;90.68;100411.16;5050270;28;20069;-75
2021/12/31 02:27:05;;;;;;;10.60;9.30;;;;;;;12.96;90.69;100422.63;5051936;28;20116;-75
2021/12/31 02:29:33;;;;;;;3.03;1.83;;;;;;;12.98;90.45;100419.97;5050942;28;20048;-75
2021/12/31 02:32:00;;;;;;;3.25;1.08;;;;;;;12.92;90.55;100433.22;5052040;28;20045;-75
2021/12/31 02:34:28;;;;;;;1.90;0.95;;;;;;;12.88;90.46;100434.06;5051797;28;20124;-74
2021/12/31 02:37:17;;;;;;;2.10;1.00;;;;;;;12.86;90.22;100430.56;5051321;28;20095;-74
2021/12/31 02:39:45;;;;;;;2.75;1.08;;;;;;;12.81;90.08;100429.66;5050328;28;20083;-75
2021/12/31 02:42:13;;;;;;;4.65;1.15;;;;;;;12.80;90.03;100436.72;5049311;28;20041;-75
2021/12/31 02:44:42;;;;;;;2.72;0.93;;;;;;;12.76;90.05;100438.50;5048081;28;20083;-75
2021/12/31 02:47:10;;;;;;;2.50;0.95;;;;;;;12.70;90.00;100429.66;5051361;28;20045;-74
2021/12/31 02:49:41;;;;;;;1.95;0.80;;;;;;;12.70;89.98;100438.47;5050896;28;20067;-74
2021/12/31 02:52:13;;;;;;;2.13;0.52;;;;;;;12.70;89.90;100432.31;5050181;28;20041;-75
2021/12/31 02:54:47;;;;;;;1.60;0.70;;;;;;;12.66;89.66;100442.03;5050417;28;20041;-74
2021/12/31 02:57:16;;;;;;;5.28;2.15;;;;;;;12.64;89.67;100435.81;5049747;28;20141;-75
2021/12/31 02:59:44;;;;;;;1.95;0.73;;;;;;;12.65;89.57;100442.00;5054266;28;20052;-74
2021/12/31 03:02:12;;;;;;;1.83;0.60;;;;;;;12.64;89.57;100449.06;5051227;28;20564;-73
2021/12/31 03:04:41;;;;;;;1.25;0.75;;;;;;;12.64;89.51;100443.78;5063598;28;20041;-74
2021/12/31 03:07:12;;;;;;;2.15;0.55;;;;;;;12.64;89.41;100443.78;5064151;28;20041;-74
2021/12/31 03:09:46;;;;;;;1.67;0.70;;;;;;;12.62;89.26;100442.88;5049297;28;20068;-74
2021/12/31 03:12:14;;;;;;;1.70;0.80;;;;;;;12.57;89.03;100444.63;5049482;28;20041;-74
2021/12/31 03:14:44;;;;;;;2.55;0.90;;;;;;;12.57;89.15;100444.63;5048477;28;20037;-74
2021/12/31 03:17:13;;;;;;;2.65;0.60;;;;;;;12.56;89.20;100445.50;5049210;28;20047;-74
2021/12/31 03:19:43;;;;;;;1.98;0.65;;;;;;;12.54;89.02;100447.25;5050223;28;20081;-74
2021/12/31 03:22:11;;;;;;;1.65;0.70;;;;;;;12.54;88.94;100449.91;5049682;28;20041;-73
2021/12/31 03:24:39;;;;;;;4.35;0.80;;;;;;;12.38;88.58;100464.00;5049003;28;20087;-74
2021/12/31 03:27:08;;;;;;;1.45;0.60;;;;;;;12.22;88.35;100463.03;5050528;28;20045;-73
2021/12/31 03:29:36;;;;;;;1.13;0.50;;;;;;;12.18;88.30;100469.22;5048859;28;20049;-73
2021/12/31 03:32:04;;;;;;;1.00;0.60;;;;;;;12.16;88.35;100475.38;5050710;28;20060;-73
2021/12/31 03:34:31;;;;;;;3.40;0.77;;;;;;;12.09;88.24;100474.44;5050317;28;20496;-74
2021/12/31 03:36:59;;;;;;;2.60;0.70;;;;;;;12.06;88.38;100476.22;5050563;28;20087;-73
2021/12/31 03:39:27;;;;;;;1.85;0.60;;;;;;;12.05;88.55;100479.72;5048973;28;20060;-73
2021/12/31 03:41:54;;;;;;;2.13;0.60;;;;;;;12.03;88.36;100473.53;5049454;28;20029;-73
2021/12/31 03:44:23;;;;;;;1.95;0.80;;;;;;;11.99;88.28;100480.59;5047607;28;20060;-73
2021/12/31 03:46:51;;;;;;;1.45;0.60;;;;;;;11.93;88.24;100494.69;5048610;28;20048;-73
2021/12/31 03:49:18;;;;;;;3.97;1.80;;;;;;;11.86;88.16;100489.34;5049688;28;20045;-73
2021/12/31 03:51:46;;;;;;;3.70;0.90;;;;;;;11.87;88.16;100494.63;5050411;28;20132;-73
2021/12/31 03:54:13;;;;;;;2.88;1.48;;;;;;;11.83;88.01;100507.81;5048680;28;20087;-73
2021/12/31 03:56:42;;;;;;;1.38;0.77;;;;;;;11.77;87.87;100515.72;5048297;28;20493;-73
2021/12/31 03:59:09;;;;;;;3.95;1.75;;;;;;;11.73;87.74;100514.78;5047351;28;20061;-73
2021/12/31 04:01:40;;;;;;;5.53;1.58;;;;;;;11.76;87.55;100520.09;5033377;28;20493;-72
2021/12/31 04:04:08;;;;;;;3.90;1.67;;;;;;;11.78;87.62;100525.41;5048473;28;20045;-73
2021/12/31 04:06:36;;;;;;;5.13;1.17;;;;;;;11.78;87.57;100528.06;5049103;28;20033;-72
2021/12/31 04:09:04;;;;;;;2.78;1.05;;;;;;;11.76;87.65;100532.44;5050119;28;20048;-73
2021/12/31 04:11:31;;;;;;;3.03;0.98;;;;;;;11.69;87.70;100528.84;5053398;28;20063;-74
2021/12/31 04:13:59;;;;;;;3.47;1.10;;;;;;;11.71;87.82;100536.78;5049149;28;20439;-73
2021/12/31 04:16:27;;;;;;;4.45;2.05;;;;;;;11.73;87.85;100535.94;5048341;28;20037;-73
2021/12/31 04:18:56;;;;;;;3.58;1.08;;;;;;;11.76;87.80;100541.25;5049801;28;20513;-73
2021/12/31 04:21:24;;;;;;;2.47;1.20;;;;;;;11.73;87.73;100550.91;5064406;28;20122;-73
2021/12/31 04:24:03;;;;;;;7.65;2.70;;;;;;;11.75;87.46;100547.41;5049683;28;20370;-73
2021/12/31 04:26:31;;;;;;;8.05;3.75;;;;;;;11.75;87.48;100568.59;5028918;28;20693;-72
2021/12/31 04:28:59;;;;;;;4.85;1.30;;;;;;;11.75;87.36;100568.59;5045242;28;20052;-73
2021/12/31 04:31:26;;;;;;;6.22;1.40;;;;;;;11.72;87.25;100580.88;5048403;28;20048;-74
2021/12/31 04:33:55;;;;;;;3.42;1.60;;;;;;;11.72;87.17;100578.22;5049006;28;20040;-73
2021/12/31 04:36:23;;;;;;;4.43;1.60;;;;;;;11.70;87.30;100582.59;5062385;28;20037;-72
2021/12/31 04:38:51;;;;;;;5.63;1.63;;;;;;;11.74;87.51;100584.47;5049221;28;20049;-73
2021/12/31 04:41:18;;;;;;;5.35;1.85;;;;;;;11.77;87.61;100593.28;5047832;28;20132;-73
2021/12/31 04:43:46;;;;;;;5.15;2.00;;;;;;;11.79;87.91;100591.56;5049080;28;20041;-72
2021/12/31 04:46:14;;;;;;;5.03;2.58;;;;;;;11.80;87.99;100595.09;5046998;28;20045;-72
2021/12/31 04:48:41;;;;;;;10.48;3.63;;;;;;;11.75;87.77;100589.72;5049328;28;20132;-72
2021/12/31 04:51:10;;;;;;;9.73;4.05;;;;;;;11.75;87.82;100592.38;5047640;28;20037;-72
2021/12/31 04:53:38;;;;;;;6.18;2.35;;;;;;;11.76;87.90;100599.44;5047362;28;20455;-73
2021/12/31 04:56:05;;;;;;;6.43;1.80;;;;;;;11.77;87.96;100595.94;5047597;28;20212;-72
2021/12/31 04:58:33;;;;;;;5.35;1.60;;;;;;;11.79;88.19;100599.47;5048053;28;20049;-72
2021/12/31 05:01:01;;;;;;;21.05;13.63;;;;;;;11.78;88.14;100604.75;5048671;28;20514;-73
2021/12/31 05:03:28;;;;;;;6.72;2.60;;;;;;;11.68;87.90;100603.78;5030919;28;20519;-72
2021/12/31 05:05:56;;;;;;;5.75;1.50;;;;;;;11.61;87.63;100614.28;5053745;28;20119;-72
2021/12/31 05:08:25;;;;;;;5.22;1.63;;;;;;;11.62;87.67;100627.50;5047859;28;20041;-73
2021/12/31 05:10:53;;;;;;;5.68;1.30;;;;;;;11.63;87.70;100631.91;5045099;28;20647;-72
2021/12/31 05:13:21;;;;;;;7.30;2.40;;;;;;;11.67;87.95;100635.47;5047801;28;20055;-72
2021/12/31 05:15:51;;;;;;;5.25;1.65;;;;;;;11.68;88.00;100637.25;5044949;28;20681;-72
2021/12/31 05:18:19;;;;;;;11.70;6.55;;;;;;;11.67;88.17;100632.84;5052482;28;20076;-72
2021/12/31 05:20:46;;;;;;;14.82;8.57;;;;;;;11.70;88.39;100646.06;5051245;28;20041;-72
2021/12/31 05:23:14;;;;;;;14.57;9.20;;;;;;;11.75;88.68;100644.41;5044139;28;20053;-73
2021/12/31 05:25:43;;;;;;;19.98;13.40;;;;;;;11.77;88.89;100642.66;5036901;28;20033;-72
2021/12/31 05:28:11;;;;;;;39.92;32.25;;;;;;;11.74;88.96;100645.28;5050622;28;20499;-72
2021/12/31 05:30:39;;;;;;;30.88;23.48;;;;;;;11.68;88.88;100664.59;5048625;28;20048;-72
2021/12/31 05:33:07;;;;;;;10.45;5.15;;;;;;;11.55;88.79;100666.19;5052718;28;20037;-72
2021/12/31 05:35:35;;;;;;;5.03;2.75;;;;;;;11.53;88.48;100664.44;5050726;28;20086;-72
2021/12/31 05:38:03;;;;;;;6.15;2.40;;;;;;;11.61;88.58;100665.41;5051655;28;20132;-72
2021/12/31 05:40:31;;;;;;;7.95;2.90;;;;;;;11.75;88.98;100671.72;5048714;28;20095;-72
2021/12/31 05:43:00;;;;;;;19.55;10.27;;;;;;;11.86;89.14;100670.06;5049073;28;20133;-72
2021/12/31 05:45:28;;;;;;;9.68;3.60;;;;;;;11.99;89.32;100673.72;5042280;28;20099;-72
2021/12/31 05:47:55;;;;;;;8.85;3.53;;;;;;;12.09;89.57;100672.91;5041894;28;20056;-72
2021/12/31 05:50:28;;;;;;;8.00;4.22;;;;;;;12.05;89.63;100675.50;5033022;28;20432;-72
2021/12/31 05:52:56;;;;;;;8.40;3.97;;;;;;;12.07;89.43;100669.38;5049930;28;20045;-72
2021/12/31 05:55:24;;;;;;;9.82;3.65;;;;;;;12.10;89.37;100677.31;5033921;28;20111;-72
2021/12/31 05:57:52;;;;;;;6.63;4.10;;;;;;;12.16;89.54;100690.59;5046445;28;20043;-72
2021/12/31 06:00:21;;;;;;;3.72;1.70;;;;;;;12.18;89.47;100687.97;5048244;28;20041;-72
2021/12/31 06:02:49;;;;;;;6.28;2.50;;;;;;;12.13;89.29;100695.00;5050257;28;20405;-72
2021/12/31 06:05:17;;;;;;;7.82;4.50;;;;;;;12.16;89.63;100692.34;5047803;28;20103;-71
2021/12/31 06:07:45;;;;;;;22.23;12.27;;;;;;;12.23;89.74;100697.72;5051835;28;20044;-72
2021/12/31 06:10:12;;;;;;;12.13;6.22;;;;;;;12.30;90.21;100704.81;5039787;28;20124;-72
2021/12/31 06:12:41;;;;;;;7.30;3.20;;;;;;;12.28;90.45;100708.31;5047311;28;20064;-71
2021/12/31 06:15:10;;;;;;;5.20;1.85;;;;;;;12.21;90.36;100706.50;5052052;28;20033;-72
2021/12/31 06:17:39;;;;;;;7.15;2.00;;;;;;;12.21;90.43;100720.63;5052395;28;20507;-71
2021/12/31 06:20:07;;;;;;;32.60;23.08;;;;;;;12.24;90.74;100722.41;5047909;28;20073;-72
2021/12/31 06:22:36;;;;;;;7.50;3.30;;;;;;;12.28;90.96;100727.72;5050612;28;20064;-72
2021/12/31 06:25:05;;;;;;;8.93;3.20;;;;;;;12.37;91.28;100734.88;5049351;28;20140;-72
2021/12/31 06:27:32;;;;;;;20.10;12.27;;;;;;;12.46;91.52;100739.34;5048977;28;20064;-72
2021/12/31 06:30:00;;;;;;;18.92;8.80;;;;;;;12.53;91.61;100747.38;5049207;28;20504;-72
2021/12/31 06:32:28;;;;;;;36.92;22.88;;;;;;;12.61;91.88;100756.22;5051161;28;20404;-72
2021/12/31 06:34:57;;;;;;;14.48;8.00;;;;;;;12.71;92.05;100762.50;5048905;28;20093;-72
2021/12/31 06:37:25;;;;;;;19.98;10.93;;;;;;;12.73;92.21;100764.25;5048664;28;20068;-72
2021/12/31 06:39:53;;;;;;;7.35;3.45;;;;;;;12.74;92.24;100773.09;5042761;28;20072;-71
2021/12/31 06:42:21;;;;;;;5.70;2.70;;;;;;;12.74;92.36;100768.69;5045443;28;20059;-72
2021/12/31 06:44:48;;;;;;;30.30;18.77;;;;;;;12.73;92.28;100784.59;5065141;28;20095;-72
2021/12/31 06:47:16;;;;;;;20.17;11.13;;;;;;;12.75;92.29;100782.81;5049331;28;20044;-72
2021/12/31 06:49:44;;;;;;;6.15;2.60;;;;;;;12.75;92.42;100799.59;5049589;28;20080;-72
2021/12/31 06:52:13;;;;;;;8.10;2.28;;;;;;;12.75;92.20;100796.94;5050549;28;20043;-71
2021/12/31 06:54:41;;;;;;;3.47;1.83;;;;;;;12.77;92.27;100800.50;5046193;28;20448;-71
2021/12/31 06:57:08;;;;;;;6.18;2.75;;;;;;;12.82;92.28;100810.22;5046473;28;20049;-73
2021/12/31 06:59:36;;;;;;;6.10;1.90;;;;;;;12.83;92.29;100817.31;5043119;28;20044;-74
2021/12/31 07:02:04;;;;;;;6.47;2.47;;;;;;;12.86;92.49;100807.63;5049429;28;20049;-76
2021/12/31 07:04:31;;;;;;;6.57;3.42;;;;;;;12.85;92.47;100812.91;5051640;28;20598;-76
2021/12/31 07:06:59;;;;;;;11.18;4.53;;;;;;;12.87;92.60;100804.09;5050732;28;20489;-79
2021/12/31 07:09:28;;;;;;;21.83;10.60;;;;;;;12.95;92.79;100812.09;5051490;28;20052;-77
2021/12/31 07:11:56;;;;;;;20.98;11.90;;;;;;;13.02;93.10;100820.09;5050878;28;20417;-77
2021/12/31 07:14:24;;;;;;;21.60;13.40;;;;;;;13.08;93.30;100829.84;5049437;28;20045;-78
2021/12/31 07:16:51;;;;;;;13.63;5.68;;;;;;;13.12;93.48;100826.34;5045865;28;20659;-78
2021/12/31 07:19:19;;;;;;;12.85;7.47;;;;;;;13.15;93.66;100832.56;5050584;28;20033;-78
2021/12/31 07:21:47;;;;;;;15.30;8.85;;;;;;;13.15;93.79;100837.00;5050016;28;20374;-77
2021/12/31 07:24:15;;;;;;;22.75;10.50;;;;;;;13.19;94.00;100825.56;5049809;28;20049;-77
2021/12/31 07:26:44;;;;;;;15.77;9.88;;;;;;;13.29;94.20;100826.47;5050827;28;20033;-77
2021/12/31 07:29:15;;;;;;;16.35;6.10;;;;;;;13.36;94.42;100825.63;5049302;28;20049;-76
2021/12/31 07:31:43;;;;;;;9.15;6.00;;;;;;;13.41;94.52;100824.78;5051145;28;20043;-76
2021/12/31 07:34:10;;;;;;;13.27;3.90;;;;;;;13.42;94.59;100826.53;5048381;28;20045;-76
2021/12/31 07:36:38;;;;;;;7.68;4.18;;;;;;;13.45;94.68;100844.25;5049363;28;20044;-75
2021/12/31 07:39:08;;;;;;;13.38;8.00;;;;;;;13.47;94.88;100846.00;5050098;28;20574;-75
2021/12/31 07:41:36;;;;;;;17.67;9.27;;;;;;;13.48;94.95;100847.78;5048610;28;20132;-75
2021/12/31 07:44:06;;;;;;;20.80;12.98;;;;;;;13.55;95.13;100844.28;5030137;28;20115;-75
2021/12/31 07:46:34;;;;;;;18.40;11.57;;;;;;;13.63;95.18;100846.09;5049756;28;20040;-74
2021/12/31 07:49:01;;;;;;;18.75;12.85;;;;;;;13.70;95.32;100846.13;5048696;28;20472;-74
2021/12/31 07:51:29;;;;;;;37.05;27.38;;;;;;;13.79;95.39;100850.56;5046818;28;20048;-74
2021/12/31 07:53:57;;;;;;;17.98;12.45;;;;;;;13.83;95.48;100847.94;5041014;28;20450;-73
2021/12/31 07:56:25;;;;;;;18.70;13.68;;;;;;;13.86;95.52;100857.66;5047018;28;20425;-74
2021/12/31 07:58:53;;;;;;;11.57;5.88;;;;;;;13.89;95.59;100860.34;5048224;28;20069;-75
2021/12/31 08:01:22;;;;;;;11.63;6.10;;;;;;;13.96;95.66;100863.03;5027682;28;20540;-75
2021/12/31 08:03:50;;;;;;;8.18;3.33;;;;;;;14.04;95.64;100871.03;5032816;28;20501;-75
2021/12/31 08:06:19;;;;;;;15.75;7.22;;;;;;;14.10;95.63;100876.34;5060881;28;20052;-75
2021/12/31 08:08:46;;;;;;;25.70;16.55;;;;;;;14.12;95.59;100884.31;5038788;28;20152;-74
2021/12/31 08:11:14;;;;;;;12.50;6.50;;;;;;;14.04;95.74;100872.78;5050136;28;20132;-73
2021/12/31 08:13:42;;;;;;;9.88;6.18;;;;;;;14.05;95.72;100878.09;5048652;28;20099;-73
2021/12/31 08:16:11;;;;;;;11.68;6.50;;;;;;;14.15;95.62;100889.63;5042859;28;20429;-74
2021/12/31 08:18:40;;;;;;;14.35;5.43;;;;;;;14.26;95.74;100887.88;5037012;28;20123;-73
2021/12/31 08:21:08;;;;;;;4.13;1.90;;;;;;;14.31;95.62;100884.34;5047312;28;20124;-73
2021/12/31 08:23:36;;;;;;;9.30;1.48;;;;;;;14.41;95.54;100885.31;5048269;28;20037;-73
2021/12/31 08:26:05;;;;;;;4.72;1.10;;;;;;;14.53;95.62;100887.09;5046548;28;20064;-74
2021/12/31 08:28:32;;;;;;;9.30;2.65;;;;;;;14.61;95.56;100882.69;5047507;28;20040;-74
2021/12/31 08:31:00;;;;;;;5.07;1.35;;;;;;;14.64;95.50;100880.91;5030810;28;20046;-74
2021/12/31 08:33:28;;;;;;;12.45;5.93;;;;;;;14.70;95.51;100874.72;5044191;28;20099;-73
2021/12/31 08:35:58;;;;;;;9.60;4.20;;;;;;;14.77;95.41;100865.00;5046406;28;20053;-73
2021/12/31 08:38:26;;;;;;;6.53;1.45;;;;;;;14.88;95.36;100873.84;5064218;28;20664;-73
2021/12/31 08:40:57;;;;;;;4.22;1.50;;;;;;;15.01;95.22;100871.19;5024497;28;20085;-73
2021/12/31 08:43:25;;;;;;;2.38;0.70;;;;;;;15.14;95.23;100878.25;5046690;28;20528;-74
2021/12/31 08:45:52;;;;;;;3.17;1.05;;;;;;;15.27;94.90;100872.91;5047528;28;20463;-74
2021/12/31 08:48:20;;;;;;;6.95;1.45;;;;;;;15.34;94.67;100874.66;5028541;28;20122;-73
2021/12/31 08:50:48;;;;;;;3.50;1.00;;;;;;;15.38;94.54;100876.41;5044010;28;20041;-74
2021/12/31 08:53:17;;;;;;;6.18;0.60;;;;;;;15.40;94.33;100872.00;5062395;28;20037;-74
2021/12/31 08:55:45;;;;;;;3.47;0.63;;;;;;;15.37;94.12;100879.97;5047742;28;20132;-75
2021/12/31 08:58:12;;;;;;;6.00;0.60;;;;;;;15.36;93.92;100883.53;5045241;28;20033;-73
2021/12/31 09:00:40;;;;;;;2.67;0.70;;;;;;;15.32;93.74;100887.97;5063367;28;20049;-75
2021/12/31 09:03:09;;;;;;;2.08;0.55;;;;;;;15.34;93.31;100887.97;5048427;28;20057;-74
2021/12/31 09:05:37;;;;;;;2.65;0.55;;;;;;;15.35;93.07;100889.75;5047672;28;20041;-74
2021/12/31 09:08:05;;;;;;;3.35;0.52;;;;;;;15.27;92.08;100894.19;5045431;28;20513;-74
2021/12/31 09:10:34;;;;;;;3.67;0.70;;;;;;;15.19;91.42;100898.63;5059155;28;20068;-72
2021/12/31 09:13:02;;;;;;;4.00;0.70;;;;;;;15.19;91.67;100890.66;5030385;28;20556;-72
2021/12/31 09:15:30;;;;;;;3.10;0.75;;;;;;;15.19;91.74;100902.16;5027469;28;20042;-74
2021/12/31 09:17:57;;;;;;;2.70;0.50;;;;;;;15.26;91.92;100903.94;5024884;28;20054;-73
2021/12/31 09:20:25;;;;;;;3.72;0.80;;;;;;;15.35;91.60;100900.38;5023607;28;20045;-72
2021/12/31 09:22:53;;;;;;;1.83;0.88;;;;;;;15.42;90.89;100891.50;5025509;28;20053;-72
2021/12/31 09:25:20;;;;;;;4.15;0.77;;;;;;;15.50;90.36;100895.91;5029901;28;20140;-71
2021/12/31 09:27:49;;;;;;;4.25;1.13;;;;;;;15.57;89.84;100895.91;5024873;28;20062;-72
2021/12/31 09:30:18;;;;;;;5.97;1.98;;;;;;;15.60;89.55;100899.47;5022193;28;20199;-71
2021/12/31 09:32:45;;;;;;;12.70;7.07;;;;;;;15.67;89.43;100903.00;5019574;28;20048;-71
2021/12/31 09:35:13;;;;;;;5.30;2.22;;;;;;;15.76;89.26;100901.19;5017540;28;20050;-71
2021/12/31 09:37:42;;;;;;;9.07;3.67;;;;;;;15.90;89.28;100901.13;5023306;28;20053;-72
2021/12/31 09:40:11;;;;;;;7.20;2.63;;;;;;;16.12;89.21;100916.13;5026460;28;20038;-70
2021/12/31 09:42:40;;;;;;;7.57;5.20;;;;;;;16.26;89.14;100918.75;5025169;28;20037;-73
2021/12/31 09:45:14;;;;;;;11.40;7.45;;;;;;;16.16;88.55;100919.66;5023292;28;20123;-72
2021/12/31 09:47:43;;;;;;;3.80;1.50;;;;;;;15.99;88.07;100911.75;5022869;28;20088;-71
2021/12/31 09:50:10;;;;;;;10.00;6.60;;;;;;;15.94;88.06;100918.88;5024855;28;20585;-71
2021/12/31 09:52:39;;;;;;;2.70;1.33;;;;;;;15.97;88.18;100915.31;5024063;28;20044;-72
2021/12/31 09:55:08;;;;;;;9.23;1.17;;;;;;;15.99;87.93;100921.53;5025051;28;20100;-73
2021/12/31 09:57:36;;;;;;;4.40;1.13;;;;;;;15.94;87.29;100914.44;5023119;28;20045;-71
2021/12/31 10:00:06;;;;;;;2.20;1.25;;;;;;;15.89;87.12;100912.66;5025773;28;20080;-71
2021/12/31 10:02:36;;;;;;;4.63;2.15;;;;;;;15.81;86.97;100917.16;5041731;28;20129;-71
2021/12/31 10:05:04;;;;;;;2.70;0.88;;;;;;;15.73;87.20;100917.19;5049661;28;20049;-70
2021/12/31 10:07:33;;;;;;;7.55;1.25;;;;;;;15.68;87.63;100915.44;5049589;28;20124;-71
2021/12/31 10:10:10;;;;;;;13.35;1.98;;;;;;;15.65;88.06;100920.75;5047140;28;20053;-71
2021/12/31 10:12:49;;;;;;;16.17;9.73;;;;;;;15.66;88.57;100914.53;5049579;28;20040;-70
2021/12/31 10:15:18;;;;;;;8.75;3.10;;;;;;;15.65;88.82;100910.09;5048781;28;20503;-70
2021/12/31 10:17:47;;;;;;;5.85;1.30;;;;;;;15.69;88.91;100906.53;5048706;28;20044;-71
2021/12/31 10:20:15;;;;;;;9.88;3.30;;;;;;;15.71;88.79;100910.97;5048775;28;20046;-71
2021/12/31 10:22:43;;;;;;;10.63;2.65;;;;;;;15.69;88.26;100910.06;5048576;28;20103;-70
2021/12/31 10:25:19;;;;;;;4.95;1.40;;;;;;;15.73;88.23;100908.31;5040985;28;20106;-71
2021/12/31 10:27:47;;;;;;;7.95;2.20;;;;;;;15.59;87.65;100900.34;5049380;28;20098;-71
2021/12/31 10:30:15;;;;;;;4.18;0.80;;;;;;;15.39;87.69;100911.00;5062736;28;20182;-72
2021/12/31 10:32:50;;;;;;;5.20;2.47;;;;;;;15.27;88.00;100913.69;5049818;28;20240;-72
2021/12/31 10:35:20;;;;;;;5.60;1.50;;;;;;;15.12;88.84;100908.38;5050229;28;20440;-74
2021/12/31 10:37:49;;;;;;;6.63;1.33;;;;;;;15.08;89.60;100903.97;5049909;28;20045;-79
2021/12/31 10:40:32;;;;;;;5.45;0.88;;;;;;;15.03;90.40;100909.25;5046041;28;20153;-83
2021/12/31 10:43:21;;;;;;;8.13;0.95;;;;;;;14.99;90.99;100904.84;5049811;28;20425;-80
2021/12/31 10:45:59;;;;;;;3.58;1.27;;;;;;;14.95;91.60;100904.84;5051161;28;20114;-76
2021/12/31 10:48:51;;;;;;;5.43;1.10;;;;;;;14.96;92.02;100896.88;5050789;28;20478;-81
2021/12/31 10:51:21;;;;;;;3.60;1.27;;;;;;;15.02;92.38;100896.88;5041024;28;20042;-76
2021/12/31 10:53:53;;;;;;;10.32;2.25;;;;;;;15.13;92.82;100896.84;5050395;28;20047;-79
2021/12/31 10:56:21;;;;;;;8.13;3.55;;;;;;;15.19;93.00;100903.94;5051383;28;20037;-82
2021/12/31 10:58:59;;;;;;;7.50;1.65;;;;;;;15.20;93.10;100897.75;5050270;28;20090;-78
2021/12/31 11:01:27;;;;;;;12.30;2.80;;;;;;;15.25;93.13;100910.13;5048845;28;20063;-79
2021/12/31 11:03:56;;;;;;;9.63;3.22;;;;;;;15.41;93.17;100900.38;5049550;28;20448;-77
2021/12/31 11:06:25;;;;;;;11.48;2.78;;;;;;;15.56;93.14;100905.66;5031630;28;20456;-77
2021/12/31 11:08:55;;;;;;;10.43;4.60;;;;;;;15.69;93.05;100896.75;5049394;28;20125;-80
2021/12/31 11:11:24;;;;;;;5.55;1.20;;;;;;;15.76;92.71;100885.22;5048899;28;20060;-79
2021/12/31 11:13:53;;;;;;;10.85;2.08;;;;;;;15.69;92.20;100903.88;5048605;28;20416;-78
2021/12/31 11:16:21;;;;;;;9.07;2.15;;;;;;;15.56;91.96;100899.50;5050204;28;20041;-75
2021/12/31 11:18:51;;;;;;;7.32;1.73;;;;;;;15.47;91.85;100887.94;5049361;28;20052;-75
2021/12/31 11:21:23;;;;;;;8.30;2.08;;;;;;;15.45;91.87;100884.38;5048559;28;20041;-74
2021/12/31 11:23:51;;;;;;;10.50;2.65;;;;;;;15.45;91.92;100872.84;5046408;28;20049;-75
2021/12/31 11:26:29;;;;;;;15.13;2.70;;;;;;;15.55;91.92;100866.69;5049982;28;20034;-73
2021/12/31 11:29:06;;;;;;;9.23;3.17;;;;;;;15.64;91.90;100855.09;5042963;28;20119;-73
2021/12/31 11:31:42;;;;;;;12.10;4.63;;;;;;;15.78;91.85;100861.25;5041580;28;20123;-73